createdAt,value
2018-11-02T00:00:41.515Z,1007.68
2018-11-02T00:01:41.537Z,1007.75
2018-11-02T00:02:41.509Z,1007.75
2018-11-02T00:03:41.506Z,1007.81
2018-11-02T00:04:41.536Z,1007.81
2018-11-02T00:05:41.504Z,1007.84
2018-11-02T00:06:41.513Z,1007.79
2018-11-02T00:07:41.502Z,1007.82
2018-11-02T00:08:41.498Z,1007.81
2018-11-02T00:09:41.510Z,1007.85
2018-11-02T00:10:41.522Z,1007.85
2018-11-02T00:11:41.496Z,1007.87
2018-11-02T00:12:41.490Z,1007.90
2018-11-02T00:13:41.493Z,1007.97
2018-11-02T00:14:41.499Z,1007.93
2018-11-02T00:15:41.708Z,1007.89
2018-11-02T00:16:41.487Z,1007.96
2018-11-02T00:17:41.481Z,1007.95
2018-11-02T00:18:41.494Z,1007.95
2018-11-02T00:19:41.487Z,1007.93
2018-11-02T00:20:41.492Z,1007.95
2018-11-02T00:21:41.675Z,1007.97
2018-11-02T00:22:41.471Z,1007.96
2018-11-02T00:23:41.482Z,1007.99
2018-11-02T00:24:41.480Z,1007.98
2018-11-02T00:25:41.481Z,1007.94
2018-11-02T00:26:41.475Z,1007.94
2018-11-02T00:27:41.475Z,1007.92
2018-11-02T00:28:41.664Z,1007.90
2018-11-02T00:29:41.481Z,1007.93
2018-11-02T00:30:41.457Z,1007.91
2018-11-02T00:31:41.472Z,1007.92
2018-11-02T00:32:41.462Z,1007.89
2018-11-02T00:33:41.702Z,1007.85
2018-11-02T00:34:41.449Z,1007.83
2018-11-02T00:35:41.445Z,1007.76
2018-11-02T00:36:41.445Z,1007.72
2018-11-02T00:37:41.457Z,1007.67
2018-11-02T00:38:41.454Z,1007.68
2018-11-02T00:39:41.439Z,1007.72
2018-11-02T00:40:41.439Z,1007.69
2018-11-02T00:41:41.453Z,1007.73
2018-11-02T00:42:41.447Z,1007.69
2018-11-02T00:43:41.459Z,1007.70
2018-11-02T00:44:41.652Z,1007.71
2018-11-02T00:45:41.428Z,1007.76
2018-11-02T00:46:41.444Z,1007.79
2018-11-02T00:47:41.637Z,1007.85
2018-11-02T00:48:41.625Z,1007.85
2018-11-02T00:49:41.422Z,1007.90
2018-11-02T00:50:41.622Z,1007.91
2018-11-02T00:51:41.418Z,1007.94
2018-11-02T00:52:41.414Z,1007.98
2018-11-02T00:53:41.633Z,1008.02
2018-11-02T00:54:41.422Z,1008.07
2018-11-02T00:55:41.423Z,1008.15
2018-11-02T00:56:41.610Z,1008.19
2018-11-02T00:57:41.446Z,1008.22
2018-11-02T00:58:41.607Z,1008.26
2018-11-02T00:59:41.606Z,1008.26
2018-11-02T01:00:41.430Z,1008.28
2018-11-02T01:01:41.427Z,1008.33
2018-11-02T01:02:41.597Z,1008.29
2018-11-02T01:03:41.394Z,1008.29
2018-11-02T01:04:41.391Z,1008.30
2018-11-02T01:05:41.389Z,1008.29
2018-11-02T01:06:41.390Z,1008.32
2018-11-02T01:07:41.400Z,1008.31
2018-11-02T01:08:41.385Z,1008.30
2018-11-02T01:09:41.386Z,1008.38
2018-11-02T01:10:41.389Z,1008.39
2018-11-02T01:11:41.397Z,1008.42
2018-11-02T01:12:41.591Z,1008.39
2018-11-02T01:13:41.375Z,1008.41
2018-11-02T01:14:41.412Z,1008.40
2018-11-02T01:15:41.374Z,1008.42
2018-11-02T01:16:41.417Z,1008.44
2018-11-02T01:17:41.391Z,1008.42
2018-11-02T01:18:41.378Z,1008.40
2018-11-02T01:19:41.376Z,1008.43
2018-11-02T01:20:41.371Z,1008.41
2018-11-02T01:21:41.390Z,1008.41
2018-11-02T01:22:41.362Z,1008.44
2018-11-02T01:23:41.399Z,1008.50
2018-11-02T01:24:41.365Z,1008.51
2018-11-02T01:25:41.364Z,1008.55
2018-11-02T01:26:41.350Z,1008.62
2018-11-02T01:27:41.349Z,1008.58
2018-11-02T01:28:41.347Z,1008.65
2018-11-02T01:29:41.347Z,1008.70
2018-11-02T01:30:41.343Z,1008.67
2018-11-02T01:31:41.565Z,1008.67
2018-11-02T01:32:41.540Z,1008.69
2018-11-02T01:33:41.336Z,1008.75
2018-11-02T01:34:41.335Z,1008.69
2018-11-02T01:35:41.330Z,1008.73
2018-11-02T01:36:41.346Z,1008.75
2018-11-02T01:37:41.529Z,1008.78
2018-11-02T01:38:41.533Z,1008.80
2018-11-02T01:39:41.326Z,1008.83
2018-11-02T01:40:41.329Z,1008.87
2018-11-02T01:41:41.321Z,1008.86
2018-11-02T01:42:41.321Z,1008.86
2018-11-02T01:43:41.330Z,1008.84
2018-11-02T01:44:41.314Z,1008.79
2018-11-02T01:45:41.340Z,1008.84
2018-11-02T01:46:41.314Z,1008.90
2018-11-02T01:47:41.308Z,1008.89
2018-11-02T01:48:41.511Z,1008.82
2018-11-02T01:49:41.309Z,1008.88
2018-11-02T01:50:41.306Z,1008.91
2018-11-02T01:51:41.303Z,1008.88
2018-11-02T01:52:41.514Z,1008.90
2018-11-02T01:53:41.310Z,1008.91
2018-11-02T01:54:41.296Z,1008.91
2018-11-02T01:55:41.308Z,1008.94
2018-11-02T01:56:41.302Z,1008.92
2018-11-02T01:57:41.303Z,1008.91
2018-11-02T01:58:41.315Z,1008.95
2018-11-02T01:59:41.513Z,1008.94
2018-11-02T02:00:41.300Z,1008.94
2018-11-02T02:01:41.312Z,1008.92
2018-11-02T02:02:41.281Z,1008.94
2018-11-02T02:03:41.292Z,1008.98
2018-11-02T02:04:41.286Z,1008.97
2018-11-02T02:05:41.275Z,1008.98
2018-11-02T02:06:41.284Z,1009.02
2018-11-02T02:07:41.273Z,1009.05
2018-11-02T02:08:41.269Z,1009.07
2018-11-02T02:09:41.278Z,1009.12
2018-11-02T02:10:41.266Z,1009.14
2018-11-02T02:11:41.288Z,1009.12
2018-11-02T02:12:41.475Z,1009.14
2018-11-02T02:13:41.266Z,1009.14
2018-11-02T02:14:41.259Z,1009.18
2018-11-02T02:15:41.256Z,1009.16
2018-11-02T02:16:41.260Z,1009.11
2018-11-02T02:17:41.464Z,1009.19
2018-11-02T02:18:41.482Z,1009.13
2018-11-02T02:19:41.251Z,1009.15
2018-11-02T02:20:41.457Z,1009.16
2018-11-02T02:21:41.259Z,1009.13
2018-11-02T02:22:41.245Z,1009.08
2018-11-02T02:23:41.245Z,1009.19
2018-11-02T02:24:41.262Z,1009.14
2018-11-02T02:25:41.443Z,1009.23
2018-11-02T02:26:41.251Z,1009.22
2018-11-02T02:27:41.451Z,1009.29
2018-11-02T02:28:41.235Z,1009.30
2018-11-02T02:29:41.436Z,1009.30
2018-11-02T02:30:41.245Z,1009.30
2018-11-02T02:31:41.237Z,1009.34
2018-11-02T02:32:41.229Z,1009.32
2018-11-02T02:33:41.440Z,1009.37
2018-11-02T02:34:41.224Z,1009.39
2018-11-02T02:35:41.228Z,1009.36
2018-11-02T02:36:41.291Z,1009.39
2018-11-02T02:37:41.236Z,1009.39
2018-11-02T02:38:41.225Z,1009.43
2018-11-02T02:39:41.417Z,1009.47
2018-11-02T02:40:41.224Z,1009.49
2018-11-02T02:41:41.210Z,1009.45
2018-11-02T02:42:41.245Z,1009.49
2018-11-02T02:43:41.234Z,1009.52
2018-11-02T02:44:41.207Z,1009.53
2018-11-02T02:45:41.407Z,1009.51
2018-11-02T02:46:41.219Z,1009.60
2018-11-02T02:47:41.211Z,1009.56
2018-11-02T02:48:41.206Z,1009.63
2018-11-02T02:49:41.197Z,1009.64
2018-11-02T02:50:41.287Z,1009.67
2018-11-02T02:51:41.199Z,1009.68
2018-11-02T02:52:41.190Z,1009.69
2018-11-02T02:53:41.185Z,1009.75
2018-11-02T02:54:41.199Z,1009.78
2018-11-02T02:55:41.183Z,1009.77
2018-11-02T02:56:41.181Z,1009.76
2018-11-02T02:57:41.195Z,1009.83
2018-11-02T02:58:41.182Z,1009.86
2018-11-02T02:59:41.191Z,1009.90
2018-11-02T03:00:41.175Z,1009.88
2018-11-02T03:01:41.172Z,1009.91
2018-11-02T03:02:41.170Z,1009.91
2018-11-02T03:03:41.166Z,1009.92
2018-11-02T03:04:41.166Z,1009.90
2018-11-02T03:05:41.179Z,1009.94
2018-11-02T03:06:41.184Z,1009.98
2018-11-02T03:07:41.162Z,1009.99
2018-11-02T03:08:41.184Z,1010.02
2018-11-02T03:09:41.163Z,1010.05
2018-11-02T03:10:41.485Z,1010.03
2018-11-02T03:11:41.152Z,1010.04
2018-11-02T03:12:41.354Z,1010.09
2018-11-02T03:13:41.356Z,1010.03
2018-11-02T03:14:41.159Z,1010.07
2018-11-02T03:15:41.191Z,1010.11
2018-11-02T03:16:41.145Z,1010.13
2018-11-02T03:17:41.147Z,1010.17
2018-11-02T03:18:41.225Z,1010.20
2018-11-02T03:19:41.150Z,1010.24
2018-11-02T03:20:41.350Z,1010.24
2018-11-02T03:21:41.339Z,1010.24
2018-11-02T03:22:41.255Z,1010.25
2018-11-02T03:23:41.135Z,1010.24
2018-11-02T03:24:41.350Z,1010.31
2018-11-02T03:25:41.129Z,1010.25
2018-11-02T03:26:41.142Z,1010.30
2018-11-02T03:27:41.148Z,1010.30
2018-11-02T03:28:41.329Z,1010.29
2018-11-02T03:29:41.118Z,1010.37
2018-11-02T03:30:41.194Z,1010.35
2018-11-02T03:31:41.145Z,1010.42
2018-11-02T03:32:41.135Z,1010.41
2018-11-02T03:33:41.172Z,1010.41
2018-11-02T03:34:41.124Z,1010.46
2018-11-02T03:35:41.119Z,1010.48
2018-11-02T03:36:41.314Z,1010.49
2018-11-02T03:37:41.117Z,1010.54
2018-11-02T03:38:41.114Z,1010.54
2018-11-02T03:39:41.100Z,1010.55
2018-11-02T03:40:41.110Z,1010.52
2018-11-02T03:41:41.102Z,1010.56
2018-11-02T03:42:41.120Z,1010.60
2018-11-02T03:43:41.295Z,1010.53
2018-11-02T03:44:41.092Z,1010.60
2018-11-02T03:45:41.106Z,1010.59
2018-11-02T03:46:41.102Z,1010.58
2018-11-02T03:47:41.302Z,1010.70
2018-11-02T03:48:41.097Z,1010.72
2018-11-02T03:49:41.084Z,1010.73
2018-11-02T03:50:41.083Z,1010.74
2018-11-02T03:51:41.076Z,1010.76
2018-11-02T03:52:41.077Z,1010.77
2018-11-02T03:53:41.088Z,1010.79
2018-11-02T03:54:41.103Z,1010.82
2018-11-02T03:55:41.083Z,1010.82
2018-11-02T03:56:41.156Z,1010.84
2018-11-02T03:57:41.071Z,1010.84
2018-11-02T03:58:41.089Z,1010.84
2018-11-02T03:59:41.062Z,1010.82
2018-11-02T04:00:41.289Z,1010.84
2018-11-02T04:01:41.112Z,1010.84
2018-11-02T04:02:41.075Z,1010.84
2018-11-02T04:03:41.072Z,1010.87
2018-11-02T04:04:41.054Z,1010.88
2018-11-02T04:05:41.052Z,1010.89
2018-11-02T04:06:41.067Z,1010.88
2018-11-02T04:07:41.078Z,1010.93
2018-11-02T04:08:41.086Z,1010.91
2018-11-02T04:09:41.314Z,1010.96
2018-11-02T04:10:41.056Z,1011.00
2018-11-02T04:11:41.245Z,1011.09
2018-11-02T04:12:41.067Z,1011.03
2018-11-02T04:13:41.038Z,1011.11
2018-11-02T04:14:41.048Z,1011.08
2018-11-02T04:15:41.048Z,1011.14
2018-11-02T04:16:41.043Z,1011.20
2018-11-02T04:17:41.031Z,1011.16
2018-11-02T04:18:41.065Z,1011.18
2018-11-02T04:19:41.026Z,1011.25
2018-11-02T04:20:41.036Z,1011.22
2018-11-02T04:21:41.034Z,1011.26
2018-11-02T04:22:41.020Z,1011.32
2018-11-02T04:23:41.233Z,1011.36
2018-11-02T04:24:41.032Z,1011.31
2018-11-02T04:25:41.016Z,1011.34
2018-11-02T04:26:41.024Z,1011.35
2018-11-02T04:27:41.013Z,1011.41
2018-11-02T04:28:41.214Z,1011.45
2018-11-02T04:29:41.214Z,1011.48
2018-11-02T04:30:41.247Z,1011.47
2018-11-02T04:31:41.018Z,1011.47
2018-11-02T04:32:41.033Z,1011.54
2018-11-02T04:33:41.212Z,1011.50
2018-11-02T04:34:41.031Z,1011.49
2018-11-02T04:35:40.994Z,1011.53
2018-11-02T04:36:41.001Z,1011.52
2018-11-02T04:37:40.989Z,1011.55
2018-11-02T04:38:40.991Z,1011.57
2018-11-02T04:39:40.990Z,1011.60
2018-11-02T04:40:41.187Z,1011.57
2018-11-02T04:41:40.982Z,1011.64
2018-11-02T04:42:41.188Z,1011.63
2018-11-02T04:43:40.990Z,1011.69
2018-11-02T04:44:40.987Z,1011.71
2018-11-02T04:45:40.985Z,1011.73
2018-11-02T04:46:40.990Z,1011.77
2018-11-02T04:47:40.970Z,1011.77
2018-11-02T04:48:41.177Z,1011.76
2018-11-02T04:49:40.967Z,1011.80
2018-11-02T04:50:41.176Z,1011.82
2018-11-02T04:51:40.961Z,1011.88
2018-11-02T04:52:40.961Z,1011.89
2018-11-02T04:53:40.974Z,1011.89
2018-11-02T04:54:41.162Z,1011.93
2018-11-02T04:55:40.957Z,1011.89
2018-11-02T04:56:40.953Z,1011.93
2018-11-02T04:57:40.964Z,1011.95
2018-11-02T04:58:40.949Z,1011.96
2018-11-02T04:59:40.948Z,1012.00
2018-11-02T05:00:41.145Z,1012.02
2018-11-02T05:01:41.169Z,1012.04
2018-11-02T05:02:41.155Z,1012.09
2018-11-02T05:03:40.965Z,1012.08
2018-11-02T05:04:40.937Z,1012.09
2018-11-02T05:05:40.937Z,1012.15
2018-11-02T05:06:40.933Z,1012.17
2018-11-02T05:07:40.942Z,1012.18
2018-11-02T05:08:40.941Z,1012.22
2018-11-02T05:09:40.969Z,1012.28
2018-11-02T05:10:41.126Z,1012.25
2018-11-02T05:11:40.922Z,1012.28
2018-11-02T05:12:40.921Z,1012.30
2018-11-02T05:13:40.921Z,1012.28
2018-11-02T05:14:40.931Z,1012.30
2018-11-02T05:15:40.927Z,1012.30
2018-11-02T05:16:40.929Z,1012.36
2018-11-02T05:17:41.124Z,1012.37
2018-11-02T05:18:40.908Z,1012.39
2018-11-02T05:19:41.111Z,1012.46
2018-11-02T05:20:40.978Z,1012.41
2018-11-02T05:21:41.116Z,1012.49
2018-11-02T05:22:40.903Z,1012.53
2018-11-02T05:23:41.111Z,1012.59
2018-11-02T05:24:40.901Z,1012.67
2018-11-02T05:25:40.897Z,1012.71
2018-11-02T05:26:40.902Z,1012.73
2018-11-02T05:27:41.091Z,1012.69
2018-11-02T05:28:40.892Z,1012.78
2018-11-02T05:29:40.883Z,1012.73
2018-11-02T05:30:41.089Z,1012.80
2018-11-02T05:31:40.877Z,1012.84
2018-11-02T05:32:41.081Z,1012.88
2018-11-02T05:33:40.877Z,1012.91
2018-11-02T05:34:40.875Z,1012.93
2018-11-02T05:35:40.873Z,1012.98
2018-11-02T05:36:40.880Z,1012.97
2018-11-02T05:37:40.892Z,1012.99
2018-11-02T05:38:40.939Z,1012.99
2018-11-02T05:39:40.982Z,1013.00
2018-11-02T05:40:40.876Z,1013.01
2018-11-02T05:41:40.878Z,1013.03
2018-11-02T05:42:40.855Z,1013.05
2018-11-02T05:43:40.858Z,1013.04
2018-11-02T05:44:40.852Z,1013.14
2018-11-02T05:45:41.053Z,1013.12
2018-11-02T05:46:40.914Z,1013.16
2018-11-02T05:47:40.856Z,1013.13
2018-11-02T05:48:40.845Z,1013.13
2018-11-02T05:49:40.842Z,1013.13
2018-11-02T05:50:40.849Z,1013.18
2018-11-02T05:51:40.834Z,1013.20
2018-11-02T05:52:41.051Z,1013.20
2018-11-02T05:53:40.832Z,1013.21
2018-11-02T05:54:40.860Z,1013.20
2018-11-02T05:55:41.029Z,1013.25
2018-11-02T05:56:40.826Z,1013.24
2018-11-02T05:57:40.823Z,1013.30
2018-11-02T05:58:40.822Z,1013.32
2018-11-02T05:59:40.832Z,1013.34
2018-11-02T06:00:40.821Z,1013.38
2018-11-02T06:01:41.116Z,1013.43
2018-11-02T06:02:40.819Z,1013.42
2018-11-02T06:03:40.814Z,1013.45
2018-11-02T06:04:40.823Z,1013.46
2018-11-02T06:05:40.808Z,1013.47
2018-11-02T06:06:40.809Z,1013.48
2018-11-02T06:07:40.867Z,1013.51
2018-11-02T06:08:40.815Z,1013.54
2018-11-02T06:09:40.821Z,1013.56
2018-11-02T06:10:40.798Z,1013.56
2018-11-02T06:11:40.807Z,1013.59
2018-11-02T06:12:40.798Z,1013.63
2018-11-02T06:13:40.801Z,1013.62
2018-11-02T06:14:40.797Z,1013.63
2018-11-02T06:15:40.785Z,1013.61
2018-11-02T06:16:40.827Z,1013.65
2018-11-02T06:17:41.033Z,1013.65
2018-11-02T06:18:40.779Z,1013.72
2018-11-02T06:19:40.779Z,1013.74
2018-11-02T06:20:40.995Z,1013.71
2018-11-02T06:21:40.793Z,1013.74
2018-11-02T06:22:40.775Z,1013.75
2018-11-02T06:23:40.978Z,1013.77
2018-11-02T06:24:40.973Z,1013.81
2018-11-02T06:25:40.788Z,1013.82
2018-11-02T06:26:40.763Z,1013.86
2018-11-02T06:27:40.963Z,1013.89
2018-11-02T06:28:40.759Z,1013.87
2018-11-02T06:29:40.824Z,1013.88
2018-11-02T06:30:40.991Z,1013.95
2018-11-02T06:31:40.967Z,1013.92
2018-11-02T06:32:40.884Z,1013.94
2018-11-02T06:33:40.762Z,1014.01
2018-11-02T06:34:40.757Z,1014.00
2018-11-02T06:35:40.796Z,1014.04
2018-11-02T06:36:40.756Z,1014.07
2018-11-02T06:37:40.958Z,1014.07
2018-11-02T06:38:40.755Z,1014.13
2018-11-02T06:39:40.737Z,1014.15
2018-11-02T06:40:40.933Z,1014.19
2018-11-02T06:41:40.737Z,1014.20
2018-11-02T06:42:40.733Z,1014.26
2018-11-02T06:43:40.726Z,1014.28
2018-11-02T06:44:40.776Z,1014.32
2018-11-02T06:45:40.941Z,1014.34
2018-11-02T06:46:40.735Z,1014.37
2018-11-02T06:47:40.722Z,1014.38
2018-11-02T06:48:40.730Z,1014.40
2018-11-02T06:49:40.716Z,1014.45
2018-11-02T06:50:40.759Z,1014.45
2018-11-02T06:51:40.710Z,1014.46
2018-11-02T06:52:40.708Z,1014.45
2018-11-02T06:53:40.710Z,1014.53
2018-11-02T06:54:40.727Z,1014.51
2018-11-02T06:55:40.704Z,1014.54
2018-11-02T06:56:40.706Z,1014.52
2018-11-02T06:57:40.704Z,1014.61
2018-11-02T06:58:40.696Z,1014.63
2018-11-02T06:59:41.082Z,1014.65
2018-11-02T07:00:40.693Z,1014.70
2018-11-02T07:01:40.692Z,1014.72
2018-11-02T07:02:40.691Z,1014.73
2018-11-02T07:03:40.689Z,1014.81
2018-11-02T07:04:40.682Z,1014.82
2018-11-02T07:05:40.680Z,1014.84
2018-11-02T07:06:40.691Z,1014.86
2018-11-02T07:07:40.948Z,1014.89
2018-11-02T07:08:40.803Z,1014.85
2018-11-02T07:09:40.674Z,1014.87
2018-11-02T07:10:40.876Z,1014.89
2018-11-02T07:11:40.888Z,1014.91
2018-11-02T07:12:40.672Z,1014.91
2018-11-02T07:13:40.665Z,1014.92
2018-11-02T07:14:40.660Z,1014.96
2018-11-02T07:15:40.698Z,1014.92
2018-11-02T07:16:40.665Z,1014.98
2018-11-02T07:17:40.658Z,1015.01
2018-11-02T07:18:40.659Z,1015.03
2018-11-02T07:19:40.687Z,1015.00
2018-11-02T07:20:40.660Z,1015.02
2018-11-02T07:21:40.656Z,1015.05
2018-11-02T07:22:40.646Z,1015.09
2018-11-02T07:23:40.641Z,1015.05
2018-11-02T07:24:40.854Z,1015.10
2018-11-02T07:25:40.642Z,1015.12
2018-11-02T07:26:40.636Z,1015.16
2018-11-02T07:27:40.634Z,1015.17
2018-11-02T07:28:40.636Z,1015.20
2018-11-02T07:29:40.644Z,1015.25
2018-11-02T07:30:40.630Z,1015.30
2018-11-02T07:31:40.631Z,1015.25
2018-11-02T07:32:40.627Z,1015.27
2018-11-02T07:33:40.624Z,1015.27
2018-11-02T07:34:40.623Z,1015.27
2018-11-02T07:35:40.633Z,1015.25
2018-11-02T07:36:40.616Z,1015.32
2018-11-02T07:37:40.612Z,1015.28
2018-11-02T07:38:40.625Z,1015.33
2018-11-02T07:39:40.610Z,1015.38
2018-11-02T07:40:40.610Z,1015.42
2018-11-02T07:41:40.637Z,1015.34
2018-11-02T07:42:40.643Z,1015.41
2018-11-02T07:43:40.604Z,1015.40
2018-11-02T07:44:40.625Z,1015.40
2018-11-02T07:45:40.606Z,1015.41
2018-11-02T07:46:40.597Z,1015.41
2018-11-02T07:47:40.747Z,1015.46
2018-11-02T07:48:40.591Z,1015.49
2018-11-02T07:49:40.705Z,1015.47
2018-11-02T07:50:40.597Z,1015.50
2018-11-02T07:51:40.656Z,1015.45
2018-11-02T07:52:40.829Z,1015.51
2018-11-02T07:53:40.579Z,1015.48
2018-11-02T07:54:40.579Z,1015.49
2018-11-02T07:55:40.782Z,1015.46
2018-11-02T07:56:40.574Z,1015.50
2018-11-02T07:57:40.572Z,1015.50
2018-11-02T07:58:40.572Z,1015.50
2018-11-02T07:59:40.582Z,1015.58
2018-11-02T08:00:40.578Z,1015.55
2018-11-02T08:01:40.568Z,1015.56
2018-11-02T08:02:40.587Z,1015.54
2018-11-02T08:03:40.572Z,1015.54
2018-11-02T08:04:40.558Z,1015.52
2018-11-02T08:05:40.556Z,1015.54
2018-11-02T08:06:40.554Z,1015.55
2018-11-02T08:07:40.552Z,1015.53
2018-11-02T08:08:40.554Z,1015.57
2018-11-02T08:09:40.548Z,1015.62
2018-11-02T08:10:40.564Z,1015.61
2018-11-02T08:11:40.625Z,1015.64
2018-11-02T08:12:40.567Z,1015.68
2018-11-02T08:13:40.540Z,1015.70
2018-11-02T08:14:40.538Z,1015.67
2018-11-02T08:15:40.537Z,1015.72
2018-11-02T08:16:40.535Z,1015.76
2018-11-02T08:17:40.573Z,1015.74
2018-11-02T08:18:40.532Z,1015.76
2018-11-02T08:19:40.537Z,1015.78
2018-11-02T08:20:40.525Z,1015.76
2018-11-02T08:21:40.536Z,1015.73
2018-11-02T08:22:40.520Z,1015.76
2018-11-02T08:23:40.520Z,1015.79
2018-11-02T08:24:40.534Z,1015.74
2018-11-02T08:25:40.518Z,1015.80
2018-11-02T08:26:40.517Z,1015.81
2018-11-02T08:27:40.509Z,1015.81
2018-11-02T08:28:40.507Z,1015.80
2018-11-02T08:29:40.520Z,1015.82
2018-11-02T08:30:40.505Z,1015.79
2018-11-02T08:31:40.511Z,1015.78
2018-11-02T08:32:40.500Z,1015.74
2018-11-02T08:33:40.500Z,1015.70
2018-11-02T08:34:40.507Z,1015.72
2018-11-02T08:35:40.506Z,1015.73
2018-11-02T08:36:40.493Z,1015.79
2018-11-02T08:37:40.521Z,1015.74
2018-11-02T08:38:40.488Z,1015.75
2018-11-02T08:39:40.496Z,1015.78
2018-11-02T08:40:40.494Z,1015.81
2018-11-02T08:41:40.505Z,1015.79
2018-11-02T08:42:40.482Z,1015.82
2018-11-02T08:43:40.478Z,1015.84
2018-11-02T08:44:40.476Z,1015.93
2018-11-02T08:45:40.480Z,1015.97
2018-11-02T08:46:40.521Z,1016.00
2018-11-02T08:47:40.472Z,1016.05
2018-11-02T08:48:40.471Z,1016.11
2018-11-02T08:49:40.478Z,1016.15
2018-11-02T08:50:40.478Z,1016.16
2018-11-02T08:51:40.470Z,1016.21
2018-11-02T08:52:40.459Z,1016.27
2018-11-02T08:53:40.659Z,1016.25
2018-11-02T08:54:40.452Z,1016.25
2018-11-02T08:55:40.450Z,1016.24
2018-11-02T08:56:40.450Z,1016.24
2018-11-02T08:57:40.546Z,1016.24
2018-11-02T08:58:40.617Z,1016.23
2018-11-02T08:59:40.705Z,1016.22
2018-11-02T09:00:40.439Z,1016.17
2018-11-02T09:01:40.448Z,1016.18
2018-11-02T09:02:40.454Z,1016.19
2018-11-02T09:03:40.433Z,1016.15
2018-11-02T09:04:40.435Z,1016.23
2018-11-02T09:05:40.459Z,1016.24
2018-11-02T09:06:40.425Z,1016.22
2018-11-02T09:07:40.422Z,1016.28
2018-11-02T09:08:40.439Z,1016.31
2018-11-02T09:09:40.437Z,1016.27
2018-11-02T09:10:40.430Z,1016.30
2018-11-02T09:11:40.415Z,1016.26
2018-11-02T09:12:40.412Z,1016.32
2018-11-02T09:13:40.437Z,1016.29
2018-11-02T09:14:40.409Z,1016.33
2018-11-02T09:15:40.408Z,1016.36
2018-11-02T09:16:40.406Z,1016.35
2018-11-02T09:17:40.404Z,1016.37
2018-11-02T09:18:40.403Z,1016.38
2018-11-02T09:19:40.602Z,1016.40
2018-11-02T09:20:40.394Z,1016.38
2018-11-02T09:21:40.392Z,1016.36
2018-11-02T09:22:40.389Z,1016.44
2018-11-02T09:23:40.387Z,1016.43
2018-11-02T09:24:40.386Z,1016.42
2018-11-02T09:25:40.384Z,1016.41
2018-11-02T09:26:40.380Z,1016.39
2018-11-02T09:27:40.420Z,1016.41
2018-11-02T09:28:40.376Z,1016.41
2018-11-02T09:29:40.589Z,1016.41
2018-11-02T09:30:40.371Z,1016.44
2018-11-02T09:31:40.410Z,1016.46
2018-11-02T09:32:40.569Z,1016.49
2018-11-02T09:33:40.371Z,1016.45
2018-11-02T09:34:40.361Z,1016.54
2018-11-02T09:35:40.356Z,1016.53
2018-11-02T09:36:40.355Z,1016.55
2018-11-02T09:37:40.368Z,1016.56
2018-11-02T09:38:40.366Z,1016.59
2018-11-02T09:39:40.350Z,1016.61
2018-11-02T09:40:40.360Z,1016.64
2018-11-02T09:41:40.354Z,1016.71
2018-11-02T09:42:40.402Z,1016.66
2018-11-02T09:43:40.352Z,1016.69
2018-11-02T09:44:40.337Z,1016.69
2018-11-02T09:45:40.352Z,1016.65
2018-11-02T09:46:40.344Z,1016.66
2018-11-02T09:47:40.329Z,1016.75
2018-11-02T09:48:40.328Z,1016.79
2018-11-02T09:49:40.335Z,1016.74
2018-11-02T09:50:40.337Z,1016.78
2018-11-02T09:51:40.476Z,1016.80
2018-11-02T09:52:40.320Z,1016.82
2018-11-02T09:53:40.318Z,1016.84
2018-11-02T09:54:40.313Z,1016.88
2018-11-02T09:55:40.321Z,1016.89
2018-11-02T09:56:40.308Z,1016.93
2018-11-02T09:57:40.384Z,1016.93
2018-11-02T09:58:40.522Z,1016.99
2018-11-02T09:59:40.298Z,1016.97
2018-11-02T10:00:40.298Z,1016.95
2018-11-02T10:01:40.305Z,1016.96
2018-11-02T10:02:40.295Z,1016.96
2018-11-02T10:03:40.306Z,1016.97
2018-11-02T10:04:40.288Z,1016.97
2018-11-02T10:05:40.297Z,1016.97
2018-11-02T10:06:40.295Z,1016.98
2018-11-02T10:07:40.295Z,1016.96
2018-11-02T10:08:40.284Z,1016.97
2018-11-02T10:09:40.509Z,1017.01
2018-11-02T10:10:40.289Z,1016.99
2018-11-02T10:11:40.282Z,1016.98
2018-11-02T10:12:40.288Z,1016.98
2018-11-02T10:13:40.268Z,1017.02
2018-11-02T10:14:40.280Z,1016.97
2018-11-02T10:15:40.265Z,1016.99
2018-11-02T10:16:40.261Z,1017.02
2018-11-02T10:17:40.257Z,1017.03
2018-11-02T10:18:40.266Z,1017.08
2018-11-02T10:19:40.265Z,1017.13
2018-11-02T10:20:40.251Z,1017.12
2018-11-02T10:21:40.267Z,1017.14
2018-11-02T10:22:40.247Z,1017.13
2018-11-02T10:23:40.275Z,1017.14
2018-11-02T10:24:40.242Z,1017.15
2018-11-02T10:25:40.241Z,1017.17
2018-11-02T10:26:40.249Z,1017.19
2018-11-02T10:27:40.252Z,1017.20
2018-11-02T10:28:40.230Z,1017.22
2018-11-02T10:29:40.246Z,1017.23
2018-11-02T10:30:40.229Z,1017.23
2018-11-02T10:31:40.222Z,1017.21
2018-11-02T10:32:40.221Z,1017.26
2018-11-02T10:33:40.220Z,1017.20
2018-11-02T10:34:40.218Z,1017.25
2018-11-02T10:35:40.329Z,1017.25
2018-11-02T10:36:40.224Z,1017.27
2018-11-02T10:37:40.211Z,1017.29
2018-11-02T10:38:40.209Z,1017.35
2018-11-02T10:39:40.247Z,1017.34
2018-11-02T10:40:40.203Z,1017.39
2018-11-02T10:41:40.200Z,1017.40
2018-11-02T10:42:40.210Z,1017.38
2018-11-02T10:43:40.194Z,1017.38
2018-11-02T10:44:40.233Z,1017.39
2018-11-02T10:45:40.192Z,1017.41
2018-11-02T10:46:40.189Z,1017.46
2018-11-02T10:47:40.196Z,1017.45
2018-11-02T10:48:40.204Z,1017.48
2018-11-02T10:49:40.190Z,1017.48
2018-11-02T10:50:40.179Z,1017.50
2018-11-02T10:51:40.236Z,1017.48
2018-11-02T10:52:40.205Z,1017.50
2018-11-02T10:53:40.185Z,1017.54
2018-11-02T10:54:40.332Z,1017.48
2018-11-02T10:55:40.181Z,1017.47
2018-11-02T10:56:40.241Z,1017.47
2018-11-02T10:57:40.175Z,1017.46
2018-11-02T10:58:40.163Z,1017.47
2018-11-02T10:59:40.158Z,1017.46
2018-11-02T11:00:40.256Z,1017.49
2018-11-02T11:01:40.165Z,1017.48
2018-11-02T11:02:40.154Z,1017.47
2018-11-02T11:03:40.160Z,1017.50
2018-11-02T11:04:40.159Z,1017.48
2018-11-02T11:05:40.163Z,1017.49
2018-11-02T11:06:40.155Z,1017.49
2018-11-02T11:07:40.142Z,1017.50
2018-11-02T11:08:40.142Z,1017.52
2018-11-02T11:09:40.164Z,1017.55
2018-11-02T11:10:40.146Z,1017.52
2018-11-02T11:11:40.217Z,1017.55
2018-11-02T11:12:40.359Z,1017.56
2018-11-02T11:13:40.630Z,1017.56
2018-11-02T11:14:40.131Z,1017.61
2018-11-02T11:15:40.125Z,1017.56
2018-11-02T11:16:40.129Z,1017.60
2018-11-02T11:17:40.133Z,1017.58
2018-11-02T11:18:40.133Z,1017.57
2018-11-02T11:19:40.132Z,1017.63
2018-11-02T11:20:40.128Z,1017.66
2018-11-02T11:21:40.116Z,1017.63
2018-11-02T11:22:40.113Z,1017.60
2018-11-02T11:24:40.121Z,1017.63
2018-11-02T11:25:40.118Z,1017.62
2018-11-02T11:26:40.133Z,1017.63
2018-11-02T11:27:40.305Z,1017.60
2018-11-02T11:28:40.198Z,1017.62
2018-11-02T11:29:40.305Z,1017.66
2018-11-02T11:30:40.106Z,1017.62
2018-11-02T11:31:40.104Z,1017.62
2018-11-02T11:32:40.101Z,1017.65
2018-11-02T11:33:40.090Z,1017.65
2018-11-02T11:34:40.102Z,1017.68
2018-11-02T11:35:40.088Z,1017.73
2018-11-02T11:36:40.093Z,1017.74
2018-11-02T11:37:40.125Z,1017.75
2018-11-02T11:38:40.094Z,1017.75
2018-11-02T11:39:40.165Z,1017.76
2018-11-02T11:40:40.088Z,1017.73
2018-11-02T11:41:40.073Z,1017.77
2018-11-02T11:42:40.082Z,1017.73
2018-11-02T11:43:40.094Z,1017.75
2018-11-02T11:44:40.066Z,1017.75
2018-11-02T11:45:40.078Z,1017.73
2018-11-02T11:46:40.065Z,1017.70
2018-11-02T11:47:40.060Z,1017.73
2018-11-02T11:48:40.132Z,1017.70
2018-11-02T11:49:40.058Z,1017.72
2018-11-02T11:50:40.056Z,1017.71
2018-11-02T11:51:40.257Z,1017.74
2018-11-02T11:52:40.050Z,1017.72
2018-11-02T11:53:40.059Z,1017.72
2018-11-02T11:54:40.305Z,1017.72
2018-11-02T11:55:40.044Z,1017.71
2018-11-02T11:56:40.063Z,1017.70
2018-11-02T11:57:40.042Z,1017.68
2018-11-02T11:58:40.064Z,1017.69
2018-11-02T11:59:40.038Z,1017.71
2018-11-02T12:00:40.038Z,1017.71
2018-11-02T12:01:40.031Z,1017.70
2018-11-02T12:02:40.050Z,1017.73
2018-11-02T12:03:40.031Z,1017.76
2018-11-02T12:04:40.073Z,1017.73
2018-11-02T12:05:40.243Z,1017.75
2018-11-02T12:06:40.024Z,1017.75